Arches Natl Park, Utah
Current Conditions -  °F | °C
As of 12:53 PM on Saturday 20 Dec 2014 (Local Time) from KCNY Reporting Station
Overcast Overcast  
Wind Chill: 32°   Ceiling: 2500
Heat Index: 37°   Visibility: 10mi
Dew Point: 31°   Wind: 7mph
Humidity: 79%   Direction: 320°NW
Pressure: 30.15"   Gusts: NA
Location:  38.7°N, 109.75°W
Report Text: KCNY 201953Z AUTO 32006KT 10SM OVC025 03/M01 A3015 RMK AO2 SLP223 T00281006
Loading
Personal Weather Stations






























Interactive Weather Map New forecast layout! Learn more

10-Day Weather Forecast

Advertisements
Track Severe Weather on mobile